sensor_id;sensor_type;location;lat;lon;timestamp;P1;durP1;ratioP1;P2;durP2;ratioP2
46705;SDS011;33519;50.712;7.124;2022-12-20T00:00:50;2.65;;;1.08;;
46705;SDS011;33519;50.712;7.124;2022-12-20T00:03:17;2.63;;;1.35;;
46705;SDS011;33519;50.712;7.124;2022-12-20T00:05:45;5.15;;;1.50;;
46705;SDS011;33519;50.712;7.124;2022-12-20T00:08:12;5.50;;;1.80;;
46705;SDS011;33519;50.712;7.124;2022-12-20T00:10:40;3.95;;;1.73;;
46705;SDS011;33519;50.712;7.124;2022-12-20T00:13:09;2.92;;;1.10;;
46705;SDS011;33519;50.712;7.124;2022-12-20T00:15:36;4.32;;;1.63;;
46705;SDS011;33519;50.712;7.124;2022-12-20T00:18:03;2.75;;;1.38;;
46705;SDS011;33519;50.712;7.124;2022-12-20T00:20:30;3.45;;;1.20;;
46705;SDS011;33519;50.712;7.124;2022-12-20T00:22:57;2.72;;;1.45;;
46705;SDS011;33519;50.712;7.124;2022-12-20T00:25:23;10.13;;;1.20;;
46705;SDS011;33519;50.712;7.124;2022-12-20T00:27:50;5.93;;;1.70;;
46705;SDS011;33519;50.712;7.124;2022-12-20T00:30:17;2.50;;;1.23;;
46705;SDS011;33519;50.712;7.124;2022-12-20T00:32:44;1.90;;;0.93;;
46705;SDS011;33519;50.712;7.124;2022-12-20T00:35:11;3.58;;;1.48;;
46705;SDS011;33519;50.712;7.124;2022-12-20T00:37:38;3.00;;;1.20;;
46705;SDS011;33519;50.712;7.124;2022-12-20T00:40:05;3.00;;;1.45;;
46705;SDS011;33519;50.712;7.124;2022-12-20T00:42:34;5.60;;;1.85;;
46705;SDS011;33519;50.712;7.124;2022-12-20T00:45:01;1.60;;;1.20;;
46705;SDS011;33519;50.712;7.124;2022-12-20T00:47:28;3.80;;;1.35;;
46705;SDS011;33519;50.712;7.124;2022-12-20T00:49:55;6.00;;;1.80;;
46705;SDS011;33519;50.712;7.124;2022-12-20T00:52:22;2.22;;;1.40;;
46705;SDS011;33519;50.712;7.124;2022-12-20T00:54:48;2.15;;;0.93;;
46705;SDS011;33519;50.712;7.124;2022-12-20T00:57:16;4.28;;;2.15;;
46705;SDS011;33519;50.712;7.124;2022-12-20T00:59:43;2.67;;;1.10;;
46705;SDS011;33519;50.712;7.124;2022-12-20T01:02:09;1.13;;;1.00;;
46705;SDS011;33519;50.712;7.124;2022-12-20T01:04:36;2.92;;;1.50;;
46705;SDS011;33519;50.712;7.124;2022-12-20T01:07:03;1.08;;;0.68;;
46705;SDS011;33519;50.712;7.124;2022-12-20T01:09:30;4.15;;;1.55;;
46705;SDS011;33519;50.712;7.124;2022-12-20T01:11:57;3.90;;;1.30;;
46705;SDS011;33519;50.712;7.124;2022-12-20T01:14:23;4.47;;;1.80;;
46705;SDS011;33519;50.712;7.124;2022-12-20T01:16:50;7.65;;;2.83;;
46705;SDS011;33519;50.712;7.124;2022-12-20T01:19:17;5.18;;;2.30;;
46705;SDS011;33519;50.712;7.124;2022-12-20T01:21:44;5.07;;;2.45;;
46705;SDS011;33519;50.712;7.124;2022-12-20T01:24:12;9.02;;;2.80;;
46705;SDS011;33519;50.712;7.124;2022-12-20T01:26:40;7.30;;;3.13;;
46705;SDS011;33519;50.712;7.124;2022-12-20T01:29:07;5.72;;;2.97;;
46705;SDS011;33519;50.712;7.124;2022-12-20T01:31:34;7.22;;;3.30;;
46705;SDS011;33519;50.712;7.124;2022-12-20T01:34:01;4.90;;;2.67;;
46705;SDS011;33519;50.712;7.124;2022-12-20T01:36:29;8.20;;;3.10;;
46705;SDS011;33519;50.712;7.124;2022-12-20T01:41:34;9.38;;;2.58;;
46705;SDS011;33519;50.712;7.124;2022-12-20T01:44:04;5.63;;;2.35;;
46705;SDS011;33519;50.712;7.124;2022-12-20T01:46:51;7.00;;;3.55;;
46705;SDS011;33519;50.712;7.124;2022-12-20T01:49:20;9.52;;;3.00;;
46705;SDS011;33519;50.712;7.124;2022-12-20T01:52:09;8.98;;;3.13;;
46705;SDS011;33519;50.712;7.124;2022-12-20T01:54:52;4.68;;;2.85;;
46705;SDS011;33519;50.712;7.124;2022-12-20T01:57:44;5.78;;;2.63;;
46705;SDS011;33519;50.712;7.124;2022-12-20T02:00:18;7.50;;;2.85;;
46705;SDS011;33519;50.712;7.124;2022-12-20T02:02:45;5.43;;;2.72;;
46705;SDS011;33519;50.712;7.124;2022-12-20T02:05:15;4.83;;;2.90;;
46705;SDS011;33519;50.712;7.124;2022-12-20T02:07:44;6.38;;;2.47;;
46705;SDS011;33519;50.712;7.124;2022-12-20T02:10:15;6.03;;;2.15;;
46705;SDS011;33519;50.712;7.124;2022-12-20T02:12:44;5.32;;;3.00;;
46705;SDS011;33519;50.712;7.124;2022-12-20T02:26:18;5.22;;;2.33;;
46705;SDS011;33519;50.712;7.124;2022-12-20T02:31:49;5.68;;;2.63;;
46705;SDS011;33519;50.712;7.124;2022-12-20T02:34:18;4.93;;;2.10;;
46705;SDS011;33519;50.712;7.124;2022-12-20T02:36:47;5.13;;;2.67;;
46705;SDS011;33519;50.712;7.124;2022-12-20T02:39:15;11.98;;;2.30;;
46705;SDS011;33519;50.712;7.124;2022-12-20T02:41:52;5.00;;;2.20;;
46705;SDS011;33519;50.712;7.124;2022-12-20T02:44:23;5.40;;;1.58;;
46705;SDS011;33519;50.712;7.124;2022-12-20T02:47:13;4.90;;;2.40;;
46705;SDS011;33519;50.712;7.124;2022-12-20T02:49:45;5.95;;;2.40;;
46705;SDS011;33519;50.712;7.124;2022-12-20T02:52:14;4.57;;;2.58;;
46705;SDS011;33519;50.712;7.124;2022-12-20T02:54:41;6.45;;;2.20;;
46705;SDS011;33519;50.712;7.124;2022-12-20T02:57:15;6.75;;;2.33;;
46705;SDS011;33519;50.712;7.124;2022-12-20T03:02:27;8.90;;;2.67;;
46705;SDS011;33519;50.712;7.124;2022-12-20T03:05:15;3.65;;;2.35;;
46705;SDS011;33519;50.712;7.124;2022-12-20T03:07:43;6.45;;;2.78;;
46705;SDS011;33519;50.712;7.124;2022-12-20T03:10:09;5.60;;;2.58;;
46705;SDS011;33519;50.712;7.124;2022-12-20T03:12:36;14.27;;;3.28;;
46705;SDS011;33519;50.712;7.124;2022-12-20T03:15:03;5.18;;;2.30;;
46705;SDS011;33519;50.712;7.124;2022-12-20T03:17:30;6.53;;;2.75;;
46705;SDS011;33519;50.712;7.124;2022-12-20T03:19:57;5.47;;;2.80;;
46705;SDS011;33519;50.712;7.124;2022-12-20T03:22:24;4.47;;;2.55;;
46705;SDS011;33519;50.712;7.124;2022-12-20T03:24:50;7.53;;;2.97;;
46705;SDS011;33519;50.712;7.124;2022-12-20T03:27:17;4.80;;;2.95;;
46705;SDS011;33519;50.712;7.124;2022-12-20T03:29:44;6.65;;;2.75;;
46705;SDS011;33519;50.712;7.124;2022-12-20T03:32:11;5.03;;;2.22;;
46705;SDS011;33519;50.712;7.124;2022-12-20T03:34:38;4.80;;;2.58;;
46705;SDS011;33519;50.712;7.124;2022-12-20T03:37:04;3.92;;;1.83;;
46705;SDS011;33519;50.712;7.124;2022-12-20T03:39:31;5.68;;;1.77;;
46705;SDS011;33519;50.712;7.124;2022-12-20T03:41:57;6.57;;;2.97;;
46705;SDS011;33519;50.712;7.124;2022-12-20T03:44:24;4.22;;;1.88;;
46705;SDS011;33519;50.712;7.124;2022-12-20T03:46:51;4.10;;;2.22;;
46705;SDS011;33519;50.712;7.124;2022-12-20T03:49:18;4.70;;;1.90;;
46705;SDS011;33519;50.712;7.124;2022-12-20T03:51:44;5.25;;;3.22;;
46705;SDS011;33519;50.712;7.124;2022-12-20T03:54:11;7.57;;;2.90;;
46705;SDS011;33519;50.712;7.124;2022-12-20T03:56:38;4.82;;;2.17;;
46705;SDS011;33519;50.712;7.124;2022-12-20T03:59:05;6.20;;;2.42;;
46705;SDS011;33519;50.712;7.124;2022-12-20T04:01:31;3.95;;;2.10;;
46705;SDS011;33519;50.712;7.124;2022-12-20T04:04:02;6.95;;;2.05;;
46705;SDS011;33519;50.712;7.124;2022-12-20T04:06:29;4.82;;;2.33;;
46705;SDS011;33519;50.712;7.124;2022-12-20T04:08:56;2.88;;;1.85;;
46705;SDS011;33519;50.712;7.124;2022-12-20T04:11:22;6.85;;;2.83;;
46705;SDS011;33519;50.712;7.124;2022-12-20T04:13:52;4.35;;;1.85;;
46705;SDS011;33519;50.712;7.124;2022-12-20T04:16:23;3.20;;;1.67;;
46705;SDS011;33519;50.712;7.124;2022-12-20T04:18:51;8.90;;;2.08;;
46705;SDS011;33519;50.712;7.124;2022-12-20T04:21:21;3.83;;;1.98;;
46705;SDS011;33519;50.712;7.124;2022-12-20T04:23:49;3.90;;;1.48;;
46705;SDS011;33519;50.712;7.124;2022-12-20T04:26:16;3.33;;;1.75;;
46705;SDS011;33519;50.712;7.124;2022-12-20T04:28:43;5.22;;;2.28;;
46705;SDS011;33519;50.712;7.124;2022-12-20T04:31:10;3.72;;;1.88;;
46705;SDS011;33519;50.712;7.124;2022-12-20T04:33:41;4.15;;;2.60;;
46705;SDS011;33519;50.712;7.124;2022-12-20T04:36:08;4.20;;;1.90;;
46705;SDS011;33519;50.712;7.124;2022-12-20T04:38:35;5.00;;;2.00;;
46705;SDS011;33519;50.712;7.124;2022-12-20T04:41:01;5.63;;;2.20;;
46705;SDS011;33519;50.712;7.124;2022-12-20T04:43:28;5.45;;;2.30;;
46705;SDS011;33519;50.712;7.124;2022-12-20T04:45:55;7.13;;;2.53;;
46705;SDS011;33519;50.712;7.124;2022-12-20T04:48:22;4.43;;;2.03;;
46705;SDS011;33519;50.712;7.124;2022-12-20T04:50:52;3.17;;;1.88;;
46705;SDS011;33519;50.712;7.124;2022-12-20T04:53:20;5.47;;;1.77;;
46705;SDS011;33519;50.712;7.124;2022-12-20T04:56:06;5.25;;;2.20;;
46705;SDS011;33519;50.712;7.124;2022-12-20T04:58:33;5.05;;;2.42;;
46705;SDS011;33519;50.712;7.124;2022-12-20T05:01:00;7.97;;;2.75;;
46705;SDS011;33519;50.712;7.124;2022-12-20T05:03:26;4.43;;;2.38;;
46705;SDS011;33519;50.712;7.124;2022-12-20T05:05:53;5.85;;;2.05;;
46705;SDS011;33519;50.712;7.124;2022-12-20T05:08:20;5.63;;;2.67;;
46705;SDS011;33519;50.712;7.124;2022-12-20T05:10:46;3.50;;;2.25;;
46705;SDS011;33519;50.712;7.124;2022-12-20T05:13:14;5.60;;;2.22;;
46705;SDS011;33519;50.712;7.124;2022-12-20T05:15:41;3.53;;;2.13;;
46705;SDS011;33519;50.712;7.124;2022-12-20T05:18:08;4.32;;;2.20;;
46705;SDS011;33519;50.712;7.124;2022-12-20T05:20:35;3.90;;;2.42;;
46705;SDS011;33519;50.712;7.124;2022-12-20T05:23:02;4.25;;;1.55;;
46705;SDS011;33519;50.712;7.124;2022-12-20T05:25:49;5.90;;;1.65;;
46705;SDS011;33519;50.712;7.124;2022-12-20T05:28:36;3.58;;;1.85;;
46705;SDS011;33519;50.712;7.124;2022-12-20T05:31:03;6.80;;;2.10;;
46705;SDS011;33519;50.712;7.124;2022-12-20T05:33:30;4.53;;;2.10;;
46705;SDS011;33519;50.712;7.124;2022-12-20T05:35:59;4.60;;;2.42;;
46705;SDS011;33519;50.712;7.124;2022-12-20T05:38:26;3.97;;;1.88;;
46705;SDS011;33519;50.712;7.124;2022-12-20T05:40:52;5.90;;;2.85;;
46705;SDS011;33519;50.712;7.124;2022-12-20T05:43:19;5.40;;;2.08;;
46705;SDS011;33519;50.712;7.124;2022-12-20T05:45:50;4.05;;;1.67;;
46705;SDS011;33519;50.712;7.124;2022-12-20T05:48:18;2.22;;;1.58;;
46705;SDS011;33519;50.712;7.124;2022-12-20T05:50:45;4.53;;;1.60;;
46705;SDS011;33519;50.712;7.124;2022-12-20T05:53:13;3.17;;;1.50;;
46705;SDS011;33519;50.712;7.124;2022-12-20T05:55:44;2.88;;;1.70;;
46705;SDS011;33519;50.712;7.124;2022-12-20T05:58:13;7.25;;;2.28;;
46705;SDS011;33519;50.712;7.124;2022-12-20T06:00:40;5.47;;;1.67;;
46705;SDS011;33519;50.712;7.124;2022-12-20T06:03:08;2.97;;;1.48;;
46705;SDS011;33519;50.712;7.124;2022-12-20T06:05:37;2.92;;;1.65;;
46705;SDS011;33519;50.712;7.124;2022-12-20T06:08:04;3.80;;;1.60;;
46705;SDS011;33519;50.712;7.124;2022-12-20T06:10:32;2.85;;;1.55;;
46705;SDS011;33519;50.712;7.124;2022-12-20T06:13:02;5.30;;;2.30;;
46705;SDS011;33519;50.712;7.124;2022-12-20T06:15:29;4.45;;;1.92;;
46705;SDS011;33519;50.712;7.124;2022-12-20T06:17:57;4.13;;;1.65;;
46705;SDS011;33519;50.712;7.124;2022-12-20T06:20:24;4.57;;;1.92;;
46705;SDS011;33519;50.712;7.124;2022-12-20T06:22:50;5.30;;;1.35;;
46705;SDS011;33519;50.712;7.124;2022-12-20T06:25:17;4.15;;;1.92;;
46705;SDS011;33519;50.712;7.124;2022-12-20T06:27:44;3.90;;;1.55;;
46705;SDS011;33519;50.712;7.124;2022-12-20T06:30:11;3.97;;;1.67;;
46705;SDS011;33519;50.712;7.124;2022-12-20T06:32:38;8.70;;;1.83;;
46705;SDS011;33519;50.712;7.124;2022-12-20T06:35:05;4.82;;;1.67;;
46705;SDS011;33519;50.712;7.124;2022-12-20T06:37:32;3.38;;;2.30;;
46705;SDS011;33519;50.712;7.124;2022-12-20T06:39:59;6.40;;;2.10;;
46705;SDS011;33519;50.712;7.124;2022-12-20T06:42:25;4.28;;;1.75;;
46705;SDS011;33519;50.712;7.124;2022-12-20T06:44:52;5.78;;;1.70;;
46705;SDS011;33519;50.712;7.124;2022-12-20T06:47:19;7.38;;;1.63;;
46705;SDS011;33519;50.712;7.124;2022-12-20T06:49:46;4.05;;;1.83;;
46705;SDS011;33519;50.712;7.124;2022-12-20T06:52:12;4.35;;;1.73;;
46705;SDS011;33519;50.712;7.124;2022-12-20T06:54:39;5.10;;;1.90;;
46705;SDS011;33519;50.712;7.124;2022-12-20T06:57:06;3.75;;;1.70;;
46705;SDS011;33519;50.712;7.124;2022-12-20T06:59:32;4.18;;;2.13;;
46705;SDS011;33519;50.712;7.124;2022-12-20T07:02:00;3.03;;;1.92;;
46705;SDS011;33519;50.712;7.124;2022-12-20T07:04:28;4.70;;;2.17;;
46705;SDS011;33519;50.712;7.124;2022-12-20T07:06:54;4.68;;;2.20;;
46705;SDS011;33519;50.712;7.124;2022-12-20T07:09:22;5.57;;;1.92;;
46705;SDS011;33519;50.712;7.124;2022-12-20T07:11:49;6.47;;;1.98;;
46705;SDS011;33519;50.712;7.124;2022-12-20T07:14:15;5.22;;;1.83;;
46705;SDS011;33519;50.712;7.124;2022-12-20T07:16:42;5.10;;;1.98;;
46705;SDS011;33519;50.712;7.124;2022-12-20T07:19:10;5.88;;;2.28;;
46705;SDS011;33519;50.712;7.124;2022-12-20T07:21:37;4.45;;;1.80;;
46705;SDS011;33519;50.712;7.124;2022-12-20T07:24:04;3.75;;;2.05;;
46705;SDS011;33519;50.712;7.124;2022-12-20T07:26:31;4.63;;;2.65;;
46705;SDS011;33519;50.712;7.124;2022-12-20T07:28:58;7.25;;;2.15;;
46705;SDS011;33519;50.712;7.124;2022-12-20T07:31:25;5.65;;;2.20;;
46705;SDS011;33519;50.712;7.124;2022-12-20T07:33:51;8.65;;;2.25;;
46705;SDS011;33519;50.712;7.124;2022-12-20T07:36:18;3.53;;;1.67;;
46705;SDS011;33519;50.712;7.124;2022-12-20T07:38:45;6.50;;;2.25;;
46705;SDS011;33519;50.712;7.124;2022-12-20T07:41:12;1.90;;;1.23;;
46705;SDS011;33519;50.712;7.124;2022-12-20T07:43:41;3.55;;;1.45;;
46705;SDS011;33519;50.712;7.124;2022-12-20T07:46:09;2.97;;;1.35;;
46705;SDS011;33519;50.712;7.124;2022-12-20T07:48:37;3.40;;;1.80;;
46705;SDS011;33519;50.712;7.124;2022-12-20T07:51:08;5.07;;;1.90;;
46705;SDS011;33519;50.712;7.124;2022-12-20T07:53:40;3.72;;;1.20;;
46705;SDS011;33519;50.712;7.124;2022-12-20T07:56:11;3.78;;;1.60;;
46705;SDS011;33519;50.712;7.124;2022-12-20T07:58:39;3.95;;;1.55;;
46705;SDS011;33519;50.712;7.124;2022-12-20T08:01:07;4.57;;;1.55;;
46705;SDS011;33519;50.712;7.124;2022-12-20T08:03:37;3.90;;;1.77;;
46705;SDS011;33519;50.712;7.124;2022-12-20T08:06:08;4.25;;;1.67;;
46705;SDS011;33519;50.712;7.124;2022-12-20T08:08:37;6.25;;;1.88;;
46705;SDS011;33519;50.712;7.124;2022-12-20T08:11:08;7.68;;;2.55;;
46705;SDS011;33519;50.712;7.124;2022-12-20T08:13:36;4.97;;;1.77;;
46705;SDS011;33519;50.712;7.124;2022-12-20T08:16:11;5.30;;;1.77;;
46705;SDS011;33519;50.712;7.124;2022-12-20T08:18:38;3.22;;;1.60;;
46705;SDS011;33519;50.712;7.124;2022-12-20T08:21:04;7.90;;;1.60;;
46705;SDS011;33519;50.712;7.124;2022-12-20T08:23:31;3.67;;;1.60;;
46705;SDS011;33519;50.712;7.124;2022-12-20T08:26:01;5.05;;;1.65;;
46705;SDS011;33519;50.712;7.124;2022-12-20T08:28:28;6.63;;;2.22;;
46705;SDS011;33519;50.712;7.124;2022-12-20T08:31:02;7.03;;;1.52;;
46705;SDS011;33519;50.712;7.124;2022-12-20T08:33:30;2.72;;;1.42;;
46705;SDS011;33519;50.712;7.124;2022-12-20T08:35:58;5.95;;;2.50;;
46705;SDS011;33519;50.712;7.124;2022-12-20T08:38:28;5.40;;;1.75;;
46705;SDS011;33519;50.712;7.124;2022-12-20T08:41:09;5.93;;;1.55;;
46705;SDS011;33519;50.712;7.124;2022-12-20T08:43:38;4.80;;;1.58;;
46705;SDS011;33519;50.712;7.124;2022-12-20T08:46:06;3.65;;;2.22;;
46705;SDS011;33519;50.712;7.124;2022-12-20T08:48:33;9.35;;;1.77;;
46705;SDS011;33519;50.712;7.124;2022-12-20T08:51:01;5.32;;;1.85;;
46705;SDS011;33519;50.712;7.124;2022-12-20T08:53:30;4.85;;;1.85;;
46705;SDS011;33519;50.712;7.124;2022-12-20T08:56:13;5.72;;;1.83;;
46705;SDS011;33519;50.712;7.124;2022-12-20T08:58:42;4.53;;;1.92;;
46705;SDS011;33519;50.712;7.124;2022-12-20T09:01:11;10.52;;;2.65;;
46705;SDS011;33519;50.712;7.124;2022-12-20T09:03:40;7.45;;;2.80;;
46705;SDS011;33519;50.712;7.124;2022-12-20T09:06:08;3.80;;;1.42;;
46705;SDS011;33519;50.712;7.124;2022-12-20T09:08:40;2.97;;;1.00;;
46705;SDS011;33519;50.712;7.124;2022-12-20T09:11:09;2.88;;;1.20;;
46705;SDS011;33519;50.712;7.124;2022-12-20T09:13:38;2.40;;;1.00;;
46705;SDS011;33519;50.712;7.124;2022-12-20T09:16:10;2.53;;;1.02;;
46705;SDS011;33519;50.712;7.124;2022-12-20T09:18:38;2.88;;;1.70;;
46705;SDS011;33519;50.712;7.124;2022-12-20T09:21:06;8.73;;;1.30;;
46705;SDS011;33519;50.712;7.124;2022-12-20T09:23:34;5.00;;;2.60;;
46705;SDS011;33519;50.712;7.124;2022-12-20T09:26:03;5.57;;;0.90;;
46705;SDS011;33519;50.712;7.124;2022-12-20T09:28:32;7.73;;;2.97;;
46705;SDS011;33519;50.712;7.124;2022-12-20T09:30:59;2.45;;;0.63;;
46705;SDS011;33519;50.712;7.124;2022-12-20T09:33:33;5.47;;;1.23;;
46705;SDS011;33519;50.712;7.124;2022-12-20T09:36:01;5.43;;;1.10;;
46705;SDS011;33519;50.712;7.124;2022-12-20T09:38:29;3.78;;;1.25;;
46705;SDS011;33519;50.712;7.124;2022-12-20T09:40:57;1.75;;;0.68;;
46705;SDS011;33519;50.712;7.124;2022-12-20T09:43:28;1.55;;;0.70;;
46705;SDS011;33519;50.712;7.124;2022-12-20T09:45:57;1.60;;;0.70;;
46705;SDS011;33519;50.712;7.124;2022-12-20T09:48:30;1.85;;;0.77;;
46705;SDS011;33519;50.712;7.124;2022-12-20T09:51:05;1.38;;;0.60;;
46705;SDS011;33519;50.712;7.124;2022-12-20T09:53:40;6.22;;;0.85;;
46705;SDS011;33519;50.712;7.124;2022-12-20T09:59:12;4.43;;;1.20;;
46705;SDS011;33519;50.712;7.124;2022-12-20T10:15:50;1.98;;;0.60;;
46705;SDS011;33519;50.712;7.124;2022-12-20T10:20:59;4.35;;;1.27;;
46705;SDS011;33519;50.712;7.124;2022-12-20T10:26:11;0.93;;;0.40;;
46705;SDS011;33519;50.712;7.124;2022-12-20T10:28:38;1.48;;;0.52;;
46705;SDS011;33519;50.712;7.124;2022-12-20T10:31:14;2.28;;;0.50;;
46705;SDS011;33519;50.712;7.124;2022-12-20T10:33:43;3.85;;;0.95;;
46705;SDS011;33519;50.712;7.124;2022-12-20T10:38:48;2.53;;;0.70;;
46705;SDS011;33519;50.712;7.124;2022-12-20T10:41:17;2.35;;;0.77;;
46705;SDS011;33519;50.712;7.124;2022-12-20T10:46:52;3.40;;;0.80;;
46705;SDS011;33519;50.712;7.124;2022-12-20T10:52:09;0.57;;;0.38;;
46705;SDS011;33519;50.712;7.124;2022-12-20T10:57:27;5.45;;;1.17;;
46705;SDS011;33519;50.712;7.124;2022-12-20T10:59:55;2.22;;;0.80;;
46705;SDS011;33519;50.712;7.124;2022-12-20T11:02:29;1.23;;;0.73;;
46705;SDS011;33519;50.712;7.124;2022-12-20T11:10:19;4.70;;;1.30;;
46705;SDS011;33519;50.712;7.124;2022-12-20T11:12:55;2.70;;;1.20;;
46705;SDS011;33519;50.712;7.124;2022-12-20T11:15:24;7.57;;;1.58;;
46705;SDS011;33519;50.712;7.124;2022-12-20T11:18:09;3.17;;;1.50;;
46705;SDS011;33519;50.712;7.124;2022-12-20T11:31:15;3.35;;;1.45;;
46705;SDS011;33519;50.712;7.124;2022-12-20T11:34:15;1.52;;;0.82;;
46705;SDS011;33519;50.712;7.124;2022-12-20T11:39:37;1.80;;;0.63;;
46705;SDS011;33519;50.712;7.124;2022-12-20T11:53:59;2.70;;;0.73;;
46705;SDS011;33519;50.712;7.124;2022-12-20T11:56:36;4.20;;;0.80;;
46705;SDS011;33519;50.712;7.124;2022-12-20T12:01:54;2.08;;;0.60;;
46705;SDS011;33519;50.712;7.124;2022-12-20T12:04:48;2.17;;;1.00;;
46705;SDS011;33519;50.712;7.124;2022-12-20T12:07:21;1.33;;;0.47;;
46705;SDS011;33519;50.712;7.124;2022-12-20T12:12:44;0.98;;;0.80;;
46705;SDS011;33519;50.712;7.124;2022-12-20T12:23:25;3.60;;;0.63;;
46705;SDS011;33519;50.712;7.124;2022-12-20T12:26:17;0.93;;;0.50;;
46705;SDS011;33519;50.712;7.124;2022-12-20T12:28:46;1.23;;;0.50;;
46705;SDS011;33519;50.712;7.124;2022-12-20T12:31:19;3.58;;;0.70;;
46705;SDS011;33519;50.712;7.124;2022-12-20T12:36:41;2.88;;;0.77;;
46705;SDS011;33519;50.712;7.124;2022-12-20T12:39:27;3.65;;;0.70;;
46705;SDS011;33519;50.712;7.124;2022-12-20T12:45:06;1.20;;;0.70;;
46705;SDS011;33519;50.712;7.124;2022-12-20T12:47:50;1.95;;;0.60;;
46705;SDS011;33519;50.712;7.124;2022-12-20T12:50:23;0.93;;;0.68;;
46705;SDS011;33519;50.712;7.124;2022-12-20T12:52:56;1.17;;;0.52;;
46705;SDS011;33519;50.712;7.124;2022-12-20T12:55:39;1.08;;;0.30;;
46705;SDS011;33519;50.712;7.124;2022-12-20T13:00:57;4.47;;;2.38;;
46705;SDS011;33519;50.712;7.124;2022-12-20T13:11:33;3.25;;;0.90;;
46705;SDS011;33519;50.712;7.124;2022-12-20T13:16:50;3.60;;;0.80;;
46705;SDS011;33519;50.712;7.124;2022-12-20T13:19:37;1.83;;;0.77;;
46705;SDS011;33519;50.712;7.124;2022-12-20T13:24:57;3.47;;;1.08;;
46705;SDS011;33519;50.712;7.124;2022-12-20T13:27:37;2.80;;;1.13;;
46705;SDS011;33519;50.712;7.124;2022-12-20T13:32:52;1.73;;;1.02;;
46705;SDS011;33519;50.712;7.124;2022-12-20T13:38:00;2.83;;;0.82;;
46705;SDS011;33519;50.712;7.124;2022-12-20T13:43:17;3.97;;;0.85;;
46705;SDS011;33519;50.712;7.124;2022-12-20T13:48:37;1.45;;;0.60;;
46705;SDS011;33519;50.712;7.124;2022-12-20T13:51:16;2.10;;;0.73;;
46705;SDS011;33519;50.712;7.124;2022-12-20T13:53:54;1.65;;;0.85;;
46705;SDS011;33519;50.712;7.124;2022-12-20T13:59:24;1.98;;;0.98;;
46705;SDS011;33519;50.712;7.124;2022-12-20T14:01:57;1.88;;;0.73;;
46705;SDS011;33519;50.712;7.124;2022-12-20T14:04:27;3.72;;;0.95;;
46705;SDS011;33519;50.712;7.124;2022-12-20T14:07:08;1.70;;;0.80;;
46705;SDS011;33519;50.712;7.124;2022-12-20T14:09:42;2.35;;;0.77;;
46705;SDS011;33519;50.712;7.124;2022-12-20T14:12:11;0.93;;;0.60;;
46705;SDS011;33519;50.712;7.124;2022-12-20T14:14:48;4.90;;;1.15;;
46705;SDS011;33519;50.712;7.124;2022-12-20T14:17:26;1.33;;;0.55;;
46705;SDS011;33519;50.712;7.124;2022-12-20T14:22:53;3.88;;;1.02;;
46705;SDS011;33519;50.712;7.124;2022-12-20T14:25:43;1.52;;;0.70;;
46705;SDS011;33519;50.712;7.124;2022-12-20T14:31:04;13.15;;;1.98;;
46705;SDS011;33519;50.712;7.124;2022-12-20T14:33:39;1.52;;;0.70;;
46705;SDS011;33519;50.712;7.124;2022-12-20T14:36:08;2.33;;;1.10;;
46705;SDS011;33519;50.712;7.124;2022-12-20T14:38:46;2.85;;;1.20;;
46705;SDS011;33519;50.712;7.124;2022-12-20T14:44:16;3.78;;;1.30;;
46705;SDS011;33519;50.712;7.124;2022-12-20T14:46:51;1.83;;;0.93;;
46705;SDS011;33519;50.712;7.124;2022-12-20T14:49:24;4.15;;;1.27;;
46705;SDS011;33519;50.712;7.124;2022-12-20T14:52:23;1.67;;;0.90;;
46705;SDS011;33519;50.712;7.124;2022-12-20T14:54:59;2.65;;;0.98;;
46705;SDS011;33519;50.712;7.124;2022-12-20T15:10:54;2.92;;;1.02;;
46705;SDS011;33519;50.712;7.124;2022-12-20T15:13:31;6.38;;;1.10;;
46705;SDS011;33519;50.712;7.124;2022-12-20T15:15:59;4.22;;;0.95;;
46705;SDS011;33519;50.712;7.124;2022-12-20T15:18:28;2.25;;;1.20;;
46705;SDS011;33519;50.712;7.124;2022-12-20T15:21:02;3.55;;;0.90;;
46705;SDS011;33519;50.712;7.124;2022-12-20T15:23:31;2.28;;;1.15;;
46705;SDS011;33519;50.712;7.124;2022-12-20T15:25:59;2.65;;;0.85;;
46705;SDS011;33519;50.712;7.124;2022-12-20T15:28:26;3.90;;;1.02;;
46705;SDS011;33519;50.712;7.124;2022-12-20T15:30:53;4.82;;;1.15;;
46705;SDS011;33519;50.712;7.124;2022-12-20T15:33:24;1.65;;;0.82;;
46705;SDS011;33519;50.712;7.124;2022-12-20T15:35:54;1.67;;;0.90;;
46705;SDS011;33519;50.712;7.124;2022-12-20T15:38:22;2.47;;;1.13;;
46705;SDS011;33519;50.712;7.124;2022-12-20T15:41:30;2.00;;;0.80;;
46705;SDS011;33519;50.712;7.124;2022-12-20T15:43:59;6.13;;;1.25;;
46705;SDS011;33519;50.712;7.124;2022-12-20T15:46:30;1.95;;;0.82;;
46705;SDS011;33519;50.712;7.124;2022-12-20T15:48:57;5.03;;;1.05;;
46705;SDS011;33519;50.712;7.124;2022-12-20T15:51:26;3.50;;;1.23;;
46705;SDS011;33519;50.712;7.124;2022-12-20T15:53:55;4.50;;;1.50;;
46705;SDS011;33519;50.712;7.124;2022-12-20T15:56:23;3.22;;;1.08;;
46705;SDS011;33519;50.712;7.124;2022-12-20T15:58:51;4.70;;;1.73;;
46705;SDS011;33519;50.712;7.124;2022-12-20T16:01:39;4.05;;;1.08;;
46705;SDS011;33519;50.712;7.124;2022-12-20T16:04:06;2.60;;;1.10;;
46705;SDS011;33519;50.712;7.124;2022-12-20T16:06:38;1.85;;;0.73;;
46705;SDS011;33519;50.712;7.124;2022-12-20T16:09:05;0.80;;;0.52;;
46705;SDS011;33519;50.712;7.124;2022-12-20T16:11:32;2.92;;;0.75;;
46705;SDS011;33519;50.712;7.124;2022-12-20T16:13:58;4.65;;;1.25;;
46705;SDS011;33519;50.712;7.124;2022-12-20T16:16:26;3.88;;;1.13;;
46705;SDS011;33519;50.712;7.124;2022-12-20T16:18:58;3.42;;;1.20;;
46705;SDS011;33519;50.712;7.124;2022-12-20T16:21:27;7.28;;;1.15;;
46705;SDS011;33519;50.712;7.124;2022-12-20T16:23:58;2.05;;;1.00;;
46705;SDS011;33519;50.712;7.124;2022-12-20T16:26:25;3.00;;;1.23;;
46705;SDS011;33519;50.712;7.124;2022-12-20T16:28:53;3.83;;;1.10;;
46705;SDS011;33519;50.712;7.124;2022-12-20T16:34:05;4.85;;;1.23;;
46705;SDS011;33519;50.712;7.124;2022-12-20T16:36:37;3.28;;;1.17;;
46705;SDS011;33519;50.712;7.124;2022-12-20T16:39:03;1.95;;;1.25;;
46705;SDS011;33519;50.712;7.124;2022-12-20T16:41:31;2.30;;;0.98;;
46705;SDS011;33519;50.712;7.124;2022-12-20T16:44:00;2.80;;;1.25;;
46705;SDS011;33519;50.712;7.124;2022-12-20T16:46:28;2.03;;;1.10;;
46705;SDS011;33519;50.712;7.124;2022-12-20T16:48:57;5.13;;;1.52;;
46705;SDS011;33519;50.712;7.124;2022-12-20T16:51:25;11.98;;;4.72;;
46705;SDS011;33519;50.712;7.124;2022-12-20T16:56:45;55.33;;;32.33;;
46705;SDS011;33519;50.712;7.124;2022-12-20T16:59:13;64.72;;;39.83;;
46705;SDS011;33519;50.712;7.124;2022-12-20T17:01:47;58.13;;;38.88;;
46705;SDS011;33519;50.712;7.124;2022-12-20T17:04:16;53.67;;;33.80;;
46705;SDS011;33519;50.712;7.124;2022-12-20T17:06:44;45.15;;;24.25;;
46705;SDS011;33519;50.712;7.124;2022-12-20T17:09:11;30.88;;;17.85;;
46705;SDS011;33519;50.712;7.124;2022-12-20T17:11:39;19.25;;;8.93;;
46705;SDS011;33519;50.712;7.124;2022-12-20T17:14:05;13.77;;;6.25;;
46705;SDS011;33519;50.712;7.124;2022-12-20T17:16:37;14.30;;;5.43;;
46705;SDS011;33519;50.712;7.124;2022-12-20T17:19:05;7.15;;;3.97;;
46705;SDS011;33519;50.712;7.124;2022-12-20T17:21:40;12.15;;;3.75;;
46705;SDS011;33519;50.712;7.124;2022-12-20T17:24:27;7.43;;;3.40;;
46705;SDS011;33519;50.712;7.124;2022-12-20T17:26:54;4.75;;;2.53;;
46705;SDS011;33519;50.712;7.124;2022-12-20T17:29:21;7.68;;;2.42;;
46705;SDS011;33519;50.712;7.124;2022-12-20T17:31:48;5.03;;;1.70;;
46705;SDS011;33519;50.712;7.124;2022-12-20T17:34:16;4.43;;;1.75;;
46705;SDS011;33519;50.712;7.124;2022-12-20T17:36:44;5.80;;;1.90;;
46705;SDS011;33519;50.712;7.124;2022-12-20T17:39:12;4.00;;;1.92;;
46705;SDS011;33519;50.712;7.124;2022-12-20T17:41:39;4.10;;;1.52;;
46705;SDS011;33519;50.712;7.124;2022-12-20T17:44:15;9.05;;;2.13;;
46705;SDS011;33519;50.712;7.124;2022-12-20T17:46:44;4.88;;;1.42;;